Terminal Aerodrome Forecast
Issued by NWS

Home | Current Version | Previous Version | Text Only | Print | Product List | Glossary On
Versions: 1 2 3 4 5 6 7 8 9 10 11 12 13 14 15 16 17
000
FTUS43 KIND 222300
TAFBMG
TAF
KBMG 222320Z 2300/2324 24004KT P6SM SCT250
     FM231100 28003KT P6SM VCSH BKN040
     FM231500 34012KT P6SM SCT050 BKN250=

USA.gov is the U.S. government's official web portal to all federal, state and local government web resources and services.